.
WxDataArchive / Data Records for 2016-01-15
2016-01-14 January 2016 2016-01-16

Data Records for Friday, 15 January 2016

Time	Temp	Chill	HIndex	Humid	Dewpt	 Wind 	HiWind	WindDir	Rain 	Barom
-----	----	-----	------	-----	-----	------	------	-------	-----	-----
00:00	39.2	39.2	39.2	82	34.2	0	1	225	0.00	29.650 
00:05	39.1	39.1	39.1	82	34.1	0	0	---	0.00	29.650 
00:10	38.9	38.9	38.9	82	33.9	0	1	225	0.00	29.650 
00:15	38.8	38.8	38.8	82	33.8	0	1	225	0.00	29.648 
00:20	38.5	38.5	38.5	82	33.5	0	0	---	0.00	29.648 
00:25	38.3	38.3	38.3	82	33.3	0	0	---	0.00	29.648 
00:30	38.0	38.0	38.0	83	33.3	0	0	---	0.00	29.647 
00:35	37.9	37.9	37.9	83	33.2	0	0	---	0.00	29.647 
00:40	37.6	37.6	37.6	83	32.9	0	0	---	0.00	29.647 
00:45	37.5	37.5	37.5	83	32.8	0	0	---	0.00	29.644 
00:50	37.2	37.2	37.2	84	32.8	0	0	---	0.00	29.644 
00:55	37.0	37.0	37.0	84	32.6	0	0	---	0.00	29.644 
01:00	37.0	37.0	37.0	84	32.6	0	1	225	0.00	29.642 
01:05	37.0	37.0	37.0	84	32.6	0	0	---	0.00	29.642 
01:10	37.0	37.0	37.0	85	32.9	0	1	225	0.00	29.642 
01:15	37.0	37.0	37.0	85	32.9	0	0	---	0.00	29.633 
01:20	37.2	37.2	37.2	85	33.1	0	1	225	0.00	29.633 
01:25	37.3	37.3	37.3	85	33.2	0	0	---	0.00	29.633 
01:30	37.5	37.5	37.5	84	33.1	0	0	---	0.00	29.633 
01:35	37.6	37.6	37.6	85	33.5	0	1	225	0.00	29.633 
01:40	37.6	37.6	37.6	84	33.2	0	1	225	0.00	29.633 
01:45	37.8	37.8	37.8	84	33.4	0	1	225	0.00	29.632 
01:50	37.9	37.9	37.9	83	33.2	0	1	225	0.00	29.632 
01:55	38.0	38.0	38.0	83	33.3	0	1	225	0.00	29.632 
02:00	38.0	38.0	38.0	83	33.3	0	1	225	0.00	29.630 
02:05	38.0	38.0	38.0	82	33.0	0	1	225	0.00	29.630 
02:10	37.9	37.9	37.9	82	32.9	0	0	---	0.00	29.630 
02:15	37.8	37.8	37.8	82	32.8	0	0	---	0.00	29.623 
02:20	37.6	37.6	37.6	82	32.6	0	0	---	0.00	29.623 
02:25	37.5	37.5	37.5	82	32.5	0	0	---	0.00	29.623 
02:30	37.3	37.3	37.3	83	32.6	0	1	225	0.00	29.621 
02:35	37.3	37.3	37.3	83	32.6	0	1	225	0.00	29.621 
02:40	37.3	37.3	37.3	83	32.6	0	1	225	0.00	29.621 
02:45	37.5	37.5	37.5	83	32.8	0	1	225	0.00	29.617 
02:50	37.6	37.6	37.6	82	32.6	0	1	225	0.00	29.617 
02:55	37.6	37.6	37.6	82	32.6	0	1	225	0.00	29.617 
03:00	37.6	37.6	37.6	82	32.6	0	2	225	0.00	29.616 
03:05	37.8	37.8	37.8	82	32.8	0	2	202	0.00	29.616 
03:10	37.9	37.9	37.9	82	32.9	0	1	202	0.00	29.616 
03:15	38.2	38.2	38.2	81	32.9	0	1	202	0.00	29.611 
03:20	38.3	38.3	38.3	81	33.0	0	2	202	0.00	29.611 
03:25	38.6	38.6	38.6	80	33.0	0	2	68	0.00	29.611 
03:30	38.8	38.8	38.8	79	32.9	0	2	45	0.00	29.602 
03:35	38.9	38.9	38.9	78	32.6	1	6	90	0.00	29.602 
03:40	38.9	38.9	38.9	78	32.6	0	1	90	0.00	29.602 
03:45	39.1	39.1	39.1	77	32.5	0	3	22	0.00	29.597 
03:50	39.1	39.1	39.1	77	32.5	0	2	22	0.00	29.597 
03:55	38.9	38.9	38.9	77	32.3	0	2	22	0.00	29.597 
04:00	38.9	38.9	38.9	77	32.3	0	1	22	0.00	29.594 
04:05	38.9	38.9	38.9	77	32.3	0	1	22	0.00	29.594 
04:10	38.8	38.8	38.8	77	32.2	0	2	22	0.00	29.594 
04:15	38.8	38.8	38.8	77	32.2	0	2	22	0.00	29.585 
04:20	38.8	38.8	38.8	77	32.2	0	1	22	0.00	29.585 
04:25	38.6	38.6	38.6	77	32.0	0	2	22	0.00	29.585 
04:30	38.6	38.6	38.6	77	32.0	0	1	22	0.00	29.577 
04:35	38.5	38.5	38.5	77	31.9	0	1	22	0.00	29.577 
04:40	38.6	38.6	38.6	77	32.0	0	2	22	0.00	29.577 
04:45	38.8	38.8	38.8	77	32.2	0	2	22	0.00	29.567 
04:50	38.8	38.8	38.8	77	32.2	0	2	22	0.00	29.567 
04:55	38.8	38.8	38.8	76	31.9	0	2	45	0.00	29.567 
05:00	38.8	38.8	38.8	77	32.2	0	2	45	0.00	29.569 
05:05	38.8	38.8	38.8	77	32.2	0	2	45	0.00	29.569 
05:10	38.8	38.8	38.8	77	32.2	0	2	45	0.00	29.569 
05:15	38.8	38.8	38.8	77	32.2	0	4	45	0.00	29.583 
05:20	38.8	38.8	38.8	76	31.9	0	2	45	0.00	29.583 
05:25	38.9	38.9	38.9	76	32.0	0	2	45	0.00	29.583 
05:30	38.9	38.9	38.9	76	32.0	0	2	45	0.00	29.571 
05:35	38.9	38.9	38.9	76	32.0	0	1	45	0.00	29.571 
05:40	38.9	38.9	38.9	76	32.0	0	3	45	0.00	29.571 
05:45	38.9	38.9	38.9	76	32.0	0	2	292	0.00	29.570 
05:50	38.9	38.9	38.9	76	32.0	0	1	292	0.00	29.570 
05:55	38.9	38.9	38.9	76	32.0	0	1	292	0.00	29.570 
06:00	38.8	38.8	38.8	76	31.9	0	2	292	0.00	29.567 
06:05	38.8	38.8	38.8	76	31.9	0	2	135	0.00	29.567 
06:10	38.6	38.6	38.6	77	32.0	0	2	112	0.00	29.567 
06:15	38.8	38.8	38.8	77	32.2	0	2	112	0.00	29.556 
06:20	38.8	38.8	38.8	77	32.2	0	3	112	0.00	29.556 
06:25	38.8	38.8	38.8	77	32.2	0	2	112	0.00	29.556 
06:30	38.6	38.6	38.6	77	32.0	0	3	112	0.00	29.555 
06:35	38.6	38.6	38.6	77	32.0	0	3	112	0.00	29.555 
06:40	38.6	38.6	38.6	78	32.3	0	1	112	0.00	29.555 
06:45	38.6	38.6	38.6	78	32.3	0	2	112	0.00	29.552 
06:50	38.6	38.6	38.6	78	32.3	0	3	112	0.00	29.552 
06:55	38.6	38.6	38.6	78	32.3	0	3	112	0.00	29.552 
07:00	38.5	38.5	38.5	79	32.6	0	2	112	0.00	29.543 
07:05	38.6	38.6	38.6	79	32.7	0	2	112	0.00	29.543 
07:10	38.6	38.6	38.6	79	32.7	0	3	112	0.00	29.543 
07:15	38.8	38.8	38.8	79	32.9	0	2	112	0.00	29.530 
07:20	38.8	38.8	38.8	79	32.9	0	2	112	0.00	29.530 
07:25	38.6	38.6	38.6	79	32.7	0	1	112	0.00	29.530 
07:30	38.6	38.6	38.6	79	32.7	0	2	112	0.00	29.531 
07:35	38.6	38.6	38.6	80	33.0	0	1	112	0.00	29.531 
07:40	38.6	38.6	38.6	80	33.0	0	3	112	0.00	29.531 
07:45	38.6	38.6	38.6	80	33.0	0	1	112	0.00	29.521 
07:50	38.6	38.6	38.6	80	33.0	0	2	112	0.00	29.521 
07:55	38.8	38.8	38.8	80	33.2	0	1	112	0.00	29.521 
08:00	38.8	38.8	38.8	81	33.5	0	2	112	0.00	29.520 
08:05	38.9	38.9	38.9	81	33.6	1	3	112	0.00	29.520 
08:10	38.9	38.9	38.9	81	33.6	0	2	112	0.00	29.520 
08:15	39.1	39.1	39.1	81	33.8	1	3	112	0.00	29.518 
08:20	39.3	39.3	39.3	81	34.0	1	3	112	0.00	29.518 
08:25	39.5	39.5	39.5	81	34.2	0	2	90	0.00	29.518 
08:30	39.5	39.5	39.5	81	34.2	0	2	90	0.00	29.509 
08:35	39.5	39.5	39.5	81	34.2	0	3	90	0.00	29.509 
08:40	39.5	39.5	39.5	81	34.2	1	3	68	0.00	29.509 
08:45	39.8	39.8	39.8	81	34.5	2	5	90	0.00	29.507 
08:50	39.9	39.9	39.9	81	34.6	1	6	90	0.00	29.507 
08:55	40.2	40.2	40.2	81	34.8	2	6	90	0.00	29.507 
09:00	40.3	40.3	40.3	81	34.9	1	4	90	0.00	29.503 
09:05	40.3	40.3	40.3	81	34.9	1	4	90	0.00	29.503 
09:10	40.5	40.5	40.5	81	35.1	1	9	90	0.00	29.503 
09:15	40.6	40.6	40.6	81	35.2	2	5	90	0.00	29.500 
09:20	40.8	40.8	40.8	81	35.4	1	4	112	0.00	29.500 
09:25	40.8	40.8	40.8	81	35.4	1	3	112	0.00	29.500 
09:30	40.9	40.9	40.9	81	35.5	1	4	45	0.00	29.504 
09:35	40.9	40.9	40.9	81	35.5	2	5	90	0.00	29.504 
09:40	41.1	41.1	41.1	81	35.7	1	5	90	0.00	29.504 
09:45	41.1	41.1	41.1	81	35.7	1	4	112	0.00	29.503 
09:50	41.2	41.2	41.2	81	35.8	0	2	90	0.00	29.503 
09:55	41.3	41.3	41.3	81	35.9	1	3	90	0.00	29.503 
10:00	41.5	41.5	41.5	81	36.1	0	3	22	0.00	29.516 
10:05	41.6	41.6	41.6	81	36.2	1	3	22	0.00	29.516 
10:10	41.6	41.6	41.6	81	36.2	1	5	22	0.00	29.516 
10:15	41.6	41.6	41.6	81	36.2	1	4	68	0.00	29.515 
10:20	41.6	41.6	41.6	81	36.2	1	4	68	0.00	29.515 
10:25	41.6	41.6	41.6	81	36.2	1	4	90	0.00	29.515 
10:30	41.6	41.6	41.6	81	36.2	1	4	90	0.00	29.517 
10:35	41.6	41.6	41.6	81	36.2	1	3	90	0.00	29.517 
10:40	41.6	41.6	41.6	81	36.2	1	3	90	0.00	29.517 
10:45	41.6	41.6	41.6	81	36.2	0	2	90	0.00	29.511 
10:50	41.8	41.8	41.8	81	36.4	1	4	90	0.00	29.511 
10:55	41.9	41.9	41.9	81	36.5	1	3	90	0.00	29.511 
11:00	41.9	41.9	41.9	82	36.8	0	2	90	0.00	29.505 
11:05	42.1	42.1	42.1	82	37.0	0	2	90	0.00	29.505 
11:10	42.2	42.2	42.2	82	37.1	1	2	90	0.00	29.505 
11:15	42.3	42.3	42.3	82	37.2	0	3	90	0.00	29.500 
11:20	42.3	42.3	42.3	82	37.2	0	4	90	0.00	29.500 
11:25	42.3	42.3	42.3	83	37.5	1	6	90	0.00	29.500 
11:30	42.2	42.2	42.2	85	38.0	1	2	112	0.00	29.495 
11:35	41.9	41.9	41.9	86	38.0	0	2	112	0.01	29.495 
11:40	41.6	41.6	41.6	87	38.0	0	2	112	0.00	29.495 
11:45	41.5	41.5	41.5	88	38.2	0	2	112	0.01	29.485 
11:50	41.5	41.5	41.5	88	38.2	1	4	90	0.00	29.485 
11:55	41.6	41.6	41.6	89	38.6	0	3	90	0.00	29.485 
12:00	41.8	41.8	41.8	89	38.8	0	3	90	0.00	29.470 
12:05	41.8	41.8	41.8	89	38.8	1	3	90	0.00	29.470 
12:10	41.8	41.8	41.8	90	39.1	1	3	90	0.00	29.470 
12:15	41.9	41.9	41.9	90	39.2	1	5	90	0.00	29.459 
12:20	41.8	41.8	41.8	89	38.8	1	4	68	0.00	29.459 
12:25	41.8	41.8	41.8	89	38.8	1	3	68	0.00	29.459 
12:30	41.6	41.6	41.6	89	38.6	0	3	68	0.00	29.457 
12:35	41.6	41.6	41.6	89	38.6	1	5	68	0.00	29.457 
12:40	41.5	41.5	41.5	89	38.5	1	3	112	0.00	29.457 
12:45	41.3	41.3	41.3	89	38.3	1	5	68	0.00	29.450 
12:50	41.3	41.3	41.3	89	38.3	1	4	68	0.00	29.450 
12:55	41.3	41.3	41.3	89	38.3	1	4	68	0.00	29.450 
13:00	41.2	41.2	41.2	89	38.2	0	2	68	0.00	29.443 
13:05	41.1	41.1	41.1	89	38.1	0	3	68	0.01	29.443 
13:10	41.1	41.1	41.1	90	38.4	1	4	45	0.00	29.443 
13:15	40.9	40.9	40.9	90	38.2	0	3	45	0.01	29.432 
13:20	41.1	41.1	41.1	90	38.4	1	4	292	0.01	29.432 
13:25	41.1	41.1	41.1	91	38.7	0	3	292	0.01	29.432 
13:30	41.1	41.1	41.1	91	38.7	0	3	292	0.00	29.421 
13:35	41.1	41.1	41.1	91	38.7	0	4	270	0.00	29.421 
13:40	41.1	41.1	41.1	91	38.7	0	3	315	0.00	29.421 
13:45	41.1	41.1	41.1	92	39.0	0	1	315	0.00	29.410 
13:50	41.1	41.1	41.1	92	39.0	0	2	315	0.00	29.410 
13:55	41.1	41.1	41.1	92	39.0	1	4	248	0.01	29.410 
14:00	40.9	40.9	40.9	92	38.8	0	2	248	0.00	29.401 
14:05	40.8	40.8	40.8	92	38.7	0	2	248	0.00	29.401 
14:10	40.8	40.8	40.8	92	38.7	0	5	112	0.00	29.401 
14:15	40.8	40.8	40.8	92	38.7	1	2	112	0.00	29.396 
14:20	40.6	40.6	40.6	92	38.5	0	2	135	0.01	29.396 
14:25	40.5	40.5	40.5	92	38.4	0	3	112	0.00	29.396 
14:30	40.5	40.5	40.5	92	38.4	0	3	112	0.00	29.391 
14:35	40.3	40.3	40.3	92	38.2	0	2	112	0.01	29.391 
14:40	40.3	40.3	40.3	92	38.2	1	3	225	0.00	29.391 
14:45	40.2	40.2	40.2	92	38.1	0	2	248	0.00	29.381 
14:50	40.2	40.2	40.2	92	38.1	1	5	248	0.00	29.381 
14:55	40.2	40.2	40.2	92	38.1	1	3	68	0.00	29.381 
15:00	40.1	40.1	40.1	92	38.0	0	2	270	0.01	29.382 
15:05	40.1	40.1	40.1	92	38.0	1	5	270	0.01	29.382 
15:10	40.1	40.1	40.1	92	38.0	0	3	112	0.00	29.382 
15:15	39.9	39.9	39.9	92	37.8	0	4	112	0.01	29.378 
15:20	39.9	39.9	39.9	92	37.8	0	2	112	0.00	29.378 
15:25	39.9	39.9	39.9	92	37.8	0	3	112	0.01	29.378 
15:30	39.9	39.9	39.9	92	37.8	0	2	112	0.00	29.375 
15:35	39.9	39.9	39.9	92	37.8	0	5	68	0.00	29.375 
15:40	39.9	39.9	39.9	92	37.8	0	2	68	0.01	29.375 
15:45	39.9	39.9	39.9	92	37.8	0	2	68	0.00	29.376 
15:50	39.8	39.8	39.8	93	37.9	0	4	225	0.00	29.376 
15:55	39.8	39.8	39.8	93	37.9	0	1	225	0.00	29.376 
16:00	39.8	39.8	39.8	93	37.9	0	1	225	0.00	29.375 
16:05	39.8	39.8	39.8	93	37.9	0	1	225	0.00	29.375 
16:10	39.8	39.8	39.8	93	37.9	0	1	225	0.00	29.375 
16:15	39.8	39.8	39.8	93	37.9	0	2	225	0.00	29.377 
16:20	39.8	39.8	39.8	93	37.9	0	1	225	0.00	29.377 
16:25	39.8	39.8	39.8	93	37.9	0	2	225	0.00	29.377 
16:30	39.9	39.9	39.9	93	38.0	0	1	225	0.00	29.376 
16:35	39.9	39.9	39.9	93	38.0	0	1	225	0.00	29.376 
16:40	39.9	39.9	39.9	93	38.0	0	2	225	0.00	29.376 
16:45	39.9	39.9	39.9	93	38.0	0	2	202	0.00	29.380 
16:50	39.9	39.9	39.9	93	38.0	0	1	202	0.00	29.380 
16:55	40.1	40.1	40.1	94	38.5	0	3	202	0.00	29.380 
17:00	40.1	40.1	40.1	94	38.5	0	3	248	0.01	29.382 
17:05	40.1	40.1	40.1	94	38.5	0	3	248	0.00	29.382 
17:10	40.1	40.1	40.1	94	38.5	0	1	248	0.01	29.382 
17:15	40.1	40.1	40.1	94	38.5	0	2	248	0.00	29.385 
17:20	40.1	40.1	40.1	94	38.5	0	3	248	0.01	29.385 
17:25	40.2	40.2	40.2	94	38.6	0	1	248	0.00	29.385 
17:30	40.2	40.2	40.2	94	38.6	0	1	248	0.01	29.383 
17:35	40.2	40.2	40.2	94	38.6	0	2	248	0.01	29.383 
17:40	40.2	40.2	40.2	94	38.6	1	3	248	0.00	29.383 
17:45	40.2	40.2	40.2	94	38.6	0	3	248	0.00	29.394 
17:50	40.2	40.2	40.2	94	38.6	0	3	248	0.00	29.394 
17:55	40.3	40.3	40.3	94	38.7	1	3	248	0.01	29.394 
18:00	40.2	40.2	40.2	94	38.6	0	3	248	0.00	29.395 
18:05	40.2	40.2	40.2	94	38.6	0	3	248	0.00	29.395 
18:10	40.2	40.2	40.2	94	38.6	0	2	248	0.00	29.395 
18:15	40.2	40.2	40.2	95	38.9	1	3	248	0.00	29.398 
18:20	40.2	40.2	40.2	94	38.6	0	3	248	0.00	29.398 
18:25	40.3	40.3	40.3	95	39.0	1	3	248	0.00	29.398 
18:30	40.3	40.3	40.3	95	39.0	0	3	248	0.00	29.401 
18:35	40.3	40.3	40.3	95	39.0	0	3	248	0.00	29.401 
18:40	40.3	40.3	40.3	95	39.0	0	3	248	0.00	29.401 
18:45	40.2	40.2	40.2	95	38.9	0	2	248	0.00	29.407 
18:50	40.2	40.2	40.2	95	38.9	0	2	248	0.00	29.407 
18:55	40.2	40.2	40.2	95	38.9	0	1	248	0.00	29.407 
19:00	40.1	40.1	40.1	95	38.8	0	1	248	0.00	29.408 
19:05	40.1	40.1	40.1	95	38.8	0	2	248	0.00	29.408 
19:10	40.1	40.1	40.1	95	38.8	0	2	248	0.00	29.408 
19:15	40.1	40.1	40.1	95	38.8	0	1	248	0.00	29.410 
19:20	40.1	40.1	40.1	95	38.8	0	1	248	0.00	29.410 
19:25	40.1	40.1	40.1	95	38.8	0	2	248	0.00	29.410 
19:30	40.1	40.1	40.1	95	38.8	0	1	248	0.00	29.419 
19:35	39.9	39.9	39.9	95	38.6	0	1	248	0.00	29.419 
19:40	39.9	39.9	39.9	95	38.6	0	2	248	0.00	29.419 
19:45	39.8	39.8	39.8	95	38.5	0	1	248	0.00	29.419 
19:50	39.8	39.8	39.8	95	38.5	0	1	248	0.00	29.419 
19:55	39.8	39.8	39.8	95	38.5	0	1	248	0.00	29.419 
20:00	39.6	39.6	39.6	95	38.3	0	1	248	0.00	29.426 
20:05	39.6	39.6	39.6	95	38.3	0	1	248	0.00	29.426 
20:10	39.6	39.6	39.6	95	38.3	0	1	248	0.00	29.426 
20:15	39.6	39.6	39.6	95	38.3	0	1	248	0.00	29.432 
20:20	39.6	39.6	39.6	95	38.3	0	2	248	0.00	29.432 
20:25	39.6	39.6	39.6	95	38.3	1	2	248	0.00	29.432 
20:30	39.8	39.8	39.8	95	38.5	1	4	248	0.00	29.439 
20:35	39.6	39.6	39.6	95	38.3	1	3	248	0.00	29.439 
20:40	39.6	39.6	39.6	95	38.3	1	3	248	0.00	29.439 
20:45	39.6	39.6	39.6	95	38.3	3	6	270	0.00	29.443 
20:50	38.8	38.8	38.8	94	37.2	3	7	270	0.00	29.443 
20:55	37.9	37.9	37.9	94	36.3	3	5	292	0.00	29.443 
21:00	37.3	37.3	37.3	94	35.7	3	7	292	0.00	29.458 
21:05	36.8	36.8	36.8	94	35.2	3	6	292	0.00	29.458 
21:10	36.5	36.5	36.5	94	34.9	3	5	270	0.00	29.458 
21:15	36.2	36.2	36.2	94	34.6	2	5	270	0.00	29.463 
21:20	36.0	36.0	36.0	94	34.4	3	5	270	0.00	29.463 
21:25	35.9	35.9	35.9	94	34.3	3	6	292	0.00	29.463 
21:30	35.8	35.8	35.8	94	34.2	3	5	270	0.00	29.465 
21:35	35.5	35.5	35.5	94	33.9	3	6	270	0.00	29.465 
21:40	35.3	35.3	35.3	94	33.7	2	5	292	0.00	29.465 
21:45	35.2	35.2	35.2	94	33.6	2	4	292	0.00	29.474 
21:50	35.0	35.0	35.0	94	33.5	2	4	292	0.00	29.474 
21:55	35.0	35.0	35.0	94	33.5	1	3	292	0.00	29.474 
22:00	35.0	35.0	35.0	94	33.5	1	3	292	0.00	29.476 
22:05	34.9	34.9	34.9	93	33.1	1	4	292	0.00	29.476 
22:10	34.7	34.7	34.7	93	32.9	2	4	292	0.00	29.476 
22:15	34.6	34.6	34.6	93	32.8	2	5	270	0.00	29.480 
22:20	34.6	34.6	34.6	93	32.8	2	5	270	0.00	29.480 
22:25	34.4	34.4	34.4	93	32.6	2	4	270	0.00	29.480 
22:30	34.4	34.4	34.4	93	32.6	2	6	270	0.00	29.485 
22:35	34.3	34.3	34.3	93	32.5	2	4	292	0.00	29.485 
22:40	34.3	34.3	34.3	93	32.5	3	5	270	0.00	29.485 
22:45	34.1	34.1	34.1	92	32.0	2	4	270	0.00	29.487 
22:50	34.1	34.1	34.1	92	32.0	1	2	270	0.00	29.487 
22:55	33.8	33.8	33.8	92	31.7	1	4	270	0.00	29.487 
23:00	33.8	33.8	33.8	92	31.7	1	4	270	0.00	29.490 
23:05	33.7	33.7	33.7	92	31.6	1	3	270	0.00	29.490 
23:10	33.5	33.5	33.5	92	31.4	1	4	270	0.00	29.490 
23:15	33.4	33.4	33.4	92	31.3	2	3	270	0.00	29.500 
23:20	33.4	33.4	33.4	92	31.3	2	4	270	0.00	29.500 
23:25	33.4	33.4	33.4	92	31.3	1	4	270	0.00	29.500 
23:30	33.2	33.2	33.2	92	31.1	2	4	270	0.00	29.508 
23:35	33.1	33.1	33.1	92	31.0	2	4	270	0.00	29.508 
23:40	33.1	33.1	33.1	92	31.0	2	5	270	0.00	29.508 
23:45	32.9	32.9	32.9	92	30.8	1	4	270	0.00	29.510 
23:50	32.9	32.9	32.9	92	30.8	1	3	270	0.00	29.510 
23:55	32.8	32.8	32.8	92	30.7	2	4	270	0.00	29.510 

CoCoRaHS
IN-AL-39
A2 Web Hosting
Creative Commons License
GoDaddy
search engine by freefind advanced

loaded 2018-11-19 19:17:47 • last modified 2010-11-18 10:43:29
Privacy PolicyDisclaimer
• wx.awcolley.com is powered by PmWiki v.2002016 •
• all content (unless otherwise noted) © 2018 A W Colley